Time;durP1;ratioP1;P1;durP2;ratioP2;P2;SDS_P1;SDS_P2;PMS_P1;PMS_P2;Temp;Humidity;BMP_temperature;BMP_pressure;BME280_temperature;BME280_humidity;BME280_pressure;Samples;Min_cycle;Max_cycle;Signal;HPM_P1;HPM_P2
2023/08/16 00:00:22;;;;;;;9.27;2.40;;;22.70;99.90;;;;;;4991837;28;20517;-70
2023/08/16 00:02:48;;;;;;;5.55;2.85;;;22.60;99.90;;;;;;4990283;28;20027;-70
2023/08/16 00:05:14;;;;;;;8.63;2.47;;;22.60;99.90;;;;;;4971723;28;20825;-69
2023/08/16 00:07:40;;;;;;;5.93;2.85;;;22.60;99.90;;;;;;4986099;28;20057;-70
2023/08/16 00:10:12;;;;;;;4.60;2.10;;;22.40;99.90;;;;;;4996632;28;20499;-70
2023/08/16 00:12:38;;;;;;;4.40;2.17;;;22.40;99.90;;;;;;4977069;28;20042;-70
2023/08/16 00:15:06;;;;;;;4.00;2.05;;;22.30;99.90;;;;;;4984336;28;20065;-70
2023/08/16 00:17:33;;;;;;;2.97;1.80;;;22.20;99.90;;;;;;4992532;28;20550;-70
2023/08/16 00:19:59;;;;;;;2.63;1.95;;;22.10;99.90;;;;;;4988485;28;20069;-70
2023/08/16 00:22:24;;;;;;;6.22;1.90;;;22.10;99.90;;;;;;4988634;28;20069;-70
2023/08/16 00:24:50;;;;;;;4.50;2.15;;;22.10;99.90;;;;;;4992988;28;20041;-70
2023/08/16 00:27:16;;;;;;;3.90;1.90;;;22.10;99.90;;;;;;4989375;28;20140;-69
2023/08/16 00:29:43;;;;;;;4.63;1.75;;;22.00;99.90;;;;;;4975582;28;20045;-70
2023/08/16 00:32:10;;;;;;;5.68;1.90;;;22.00;99.90;;;;;;4999395;28;20029;-70
2023/08/16 00:34:36;;;;;;;3.63;2.10;;;22.00;99.90;;;;;;4997118;28;20034;-70
2023/08/16 00:37:02;;;;;;;3.20;1.77;;;22.00;99.90;;;;;;4962376;28;20030;-70
2023/08/16 00:39:28;;;;;;;3.70;1.90;;;21.90;99.90;;;;;;4986170;28;20473;-70
2023/08/16 00:41:54;;;;;;;5.03;1.67;;;21.90;99.90;;;;;;4969763;28;20065;-69
2023/08/16 00:44:20;;;;;;;3.78;1.63;;;21.90;99.90;;;;;;4996616;28;20095;-70
2023/08/16 00:46:46;;;;;;;2.95;1.67;;;21.90;99.90;;;;;;4992726;28;20093;-70
2023/08/16 00:49:12;;;;;;;3.45;1.90;;;21.90;99.90;;;;;;4990541;28;20031;-70
2023/08/16 00:51:39;;;;;;;2.00;1.80;;;21.90;99.90;;;;;;4974134;28;20037;-70
2023/08/16 00:54:05;;;;;;;2.80;1.52;;;21.90;99.90;;;;;;4990340;28;20038;-70
2023/08/16 00:56:33;;;;;;;5.88;1.60;;;21.90;99.90;;;;;;4965178;28;20030;-70
2023/08/16 00:58:58;;;;;;;4.13;1.80;;;21.80;99.90;;;;;;4994748;28;20049;-70
2023/08/16 01:01:25;;;;;;;2.05;1.50;;;21.90;99.90;;;;;;4971454;28;20112;-70
2023/08/16 01:03:51;;;;;;;4.60;1.77;;;21.80;99.90;;;;;;4972272;28;20792;-70
2023/08/16 01:06:17;;;;;;;4.22;2.00;;;21.80;99.90;;;;;;4978725;28;20034;-70
2023/08/16 01:08:43;;;;;;;2.45;1.75;;;21.80;99.90;;;;;;4991671;28;20089;-70
2023/08/16 01:11:22;;;;;;;1.70;1.60;;;21.80;99.90;;;;;;4956136;28;20504;-69
2023/08/16 01:14:20;;;;;;;4.03;1.90;;;21.80;99.90;;;;;;4980587;28;20045;-70
2023/08/16 01:16:47;;;;;;;3.72;1.70;;;21.80;99.90;;;;;;4974022;28;20434;-69
2023/08/16 01:19:23;;;;;;;2.00;1.67;;;21.80;99.90;;;;;;4982241;28;20031;-70
2023/08/16 01:22:00;;;;;;;2.53;1.77;;;21.80;99.90;;;;;;4978950;28;20037;-70
2023/08/16 01:24:34;;;;;;;3.90;1.92;;;21.80;99.90;;;;;;4978307;28;20034;-70
2023/08/16 01:27:01;;;;;;;2.00;1.80;;;21.80;99.90;;;;;;4978695;28;20121;-70
2023/08/16 01:29:28;;;;;;;3.35;1.80;;;21.70;99.90;;;;;;5000887;28;20038;-70
2023/08/16 01:31:54;;;;;;;2.33;1.95;;;21.80;99.90;;;;;;4994261;28;20038;-70
2023/08/16 01:34:19;;;;;;;3.08;1.85;;;21.70;99.90;;;;;;4988716;28;20049;-70
2023/08/16 01:36:45;;;;;;;2.03;1.80;;;21.80;99.90;;;;;;4983876;28;20108;-69
2023/08/16 01:39:11;;;;;;;5.03;1.85;;;21.80;99.90;;;;;;4999059;28;20371;-70
2023/08/16 01:41:50;;;;;;;3.72;2.13;;;21.70;99.90;;;;;;4982147;28;20105;-70
2023/08/16 01:44:19;;;;;;;3.83;2.20;;;21.80;99.90;;;;;;4987156;28;20034;-70
2023/08/16 01:46:45;;;;;;;3.15;2.08;;;21.80;99.90;;;;;;4971392;28;20042;-70
2023/08/16 01:49:13;;;;;;;2.22;1.70;;;21.80;99.90;;;;;;4978918;28;20034;-69
2023/08/16 01:51:39;;;;;;;1.85;1.63;;;21.70;99.90;;;;;;4995384;28;20053;-70
2023/08/16 01:54:05;;;;;;;3.50;1.80;;;21.80;99.90;;;;;;4977973;28;20042;-69
2023/08/16 01:56:31;;;;;;;1.90;1.70;;;21.70;99.90;;;;;;4991030;28;20077;-69
2023/08/16 01:58:57;;;;;;;2.97;1.60;;;21.70;99.90;;;;;;4986971;28;20115;-69
2023/08/16 02:01:23;;;;;;;2.22;2.03;;;21.70;99.90;;;;;;4978418;28;20023;-70
2023/08/16 02:03:49;;;;;;;3.38;1.85;;;21.70;99.90;;;;;;4977658;28;20038;-69
2023/08/16 02:06:15;;;;;;;3.20;1.98;;;21.70;99.90;;;;;;4970339;28;20144;-70
2023/08/16 02:08:40;;;;;;;1.67;1.55;;;21.60;99.90;;;;;;4971190;28;20094;-70
2023/08/16 02:11:06;;;;;;;2.65;1.60;;;21.60;99.90;;;;;;4984373;28;20038;-70
2023/08/16 02:13:32;;;;;;;2.55;1.80;;;21.50;99.90;;;;;;4981410;28;20049;-69
2023/08/16 02:16:02;;;;;;;2.65;1.92;;;21.50;99.90;;;;;;4966723;28;20038;-70
2023/08/16 02:18:29;;;;;;;3.55;2.03;;;21.50;99.90;;;;;;4975158;28;20044;-69
2023/08/16 02:20:56;;;;;;;3.50;1.80;;;21.40;99.90;;;;;;4978435;28;20057;-69
2023/08/16 02:23:22;;;;;;;2.08;1.77;;;21.40;99.90;;;;;;4966515;28;20031;-69
2023/08/16 02:25:48;;;;;;;1.90;1.80;;;21.40;99.90;;;;;;4978442;28;20101;-69
2023/08/16 02:28:14;;;;;;;2.00;1.60;;;21.40;99.90;;;;;;4978460;28;20128;-69
2023/08/16 02:30:39;;;;;;;2.25;1.88;;;21.40;99.90;;;;;;4965731;28;20046;-69
2023/08/16 02:33:06;;;;;;;2.63;2.20;;;21.40;99.90;;;;;;4979522;28;20038;-69
2023/08/16 02:35:31;;;;;;;2.70;1.80;;;21.40;99.90;;;;;;4998806;28;20022;-69
2023/08/16 02:37:57;;;;;;;5.43;2.20;;;21.30;99.90;;;;;;4991621;28;20034;-69
2023/08/16 02:40:23;;;;;;;3.47;2.00;;;21.30;99.90;;;;;;4995540;28;20044;-69
2023/08/16 02:42:50;;;;;;;4.47;2.10;;;21.30;99.90;;;;;;4996642;28;20042;-69
2023/08/16 02:45:17;;;;;;;2.45;1.67;;;21.30;99.90;;;;;;4990478;28;20245;-69
2023/08/16 02:47:43;;;;;;;2.38;2.00;;;21.20;99.90;;;;;;4977420;28;20034;-69
2023/08/16 02:50:09;;;;;;;2.33;2.10;;;21.20;99.90;;;;;;4990992;28;20049;-69
2023/08/16 02:52:35;;;;;;;2.75;1.80;;;21.30;99.90;;;;;;4980350;28;20037;-69
2023/08/16 02:55:01;;;;;;;3.75;2.30;;;21.30;99.90;;;;;;4980602;28;20092;-69
2023/08/16 02:57:26;;;;;;;3.00;2.13;;;21.30;99.90;;;;;;4988385;28;20482;-69
2023/08/16 02:59:52;;;;;;;4.18;2.38;;;21.30;99.90;;;;;;4972323;28;20031;-69
2023/08/16 03:02:18;;;;;;;3.47;2.47;;;21.30;99.90;;;;;;4995197;28;20030;-69
2023/08/16 03:04:44;;;;;;;4.43;2.50;;;21.30;99.90;;;;;;4970319;28;20038;-69
2023/08/16 03:07:11;;;;;;;5.68;2.25;;;21.30;99.90;;;;;;4983546;28;20112;-69
2023/08/16 03:09:37;;;;;;;3.58;2.05;;;21.30;99.90;;;;;;4992748;28;20052;-69
2023/08/16 03:12:04;;;;;;;2.67;1.88;;;21.30;99.90;;;;;;4969414;28;20034;-69
2023/08/16 03:14:30;;;;;;;5.30;2.53;;;21.30;99.90;;;;;;4995604;28;20855;-69
2023/08/16 03:16:57;;;;;;;2.50;2.15;;;21.30;99.90;;;;;;4978531;28;20450;-69
2023/08/16 03:19:23;;;;;;;3.13;2.10;;;21.30;99.90;;;;;;4960686;28;20129;-69
2023/08/16 03:21:48;;;;;;;2.08;1.90;;;21.30;99.90;;;;;;4979769;28;20469;-69
2023/08/16 03:24:14;;;;;;;2.53;2.30;;;21.30;99.90;;;;;;4984966;28;20030;-69
2023/08/16 03:26:40;;;;;;;4.00;2.20;;;21.30;99.90;;;;;;4978890;28;20037;-69
2023/08/16 03:29:06;;;;;;;3.60;2.38;;;21.30;99.90;;;;;;4968132;28;20034;-69
2023/08/16 03:31:34;;;;;;;3.42;2.38;;;21.30;99.90;;;;;;4976751;28;20030;-69
2023/08/16 03:34:00;;;;;;;2.30;2.10;;;21.30;99.90;;;;;;4980748;28;20033;-69
2023/08/16 03:36:26;;;;;;;4.00;2.00;;;21.20;99.90;;;;;;4975122;28;20030;-69
2023/08/16 03:38:52;;;;;;;2.65;2.45;;;21.20;99.90;;;;;;4972579;28;20532;-69
2023/08/16 03:41:19;;;;;;;2.33;2.13;;;21.20;99.90;;;;;;4978848;28;20026;-68
2023/08/16 03:43:44;;;;;;;2.35;1.95;;;21.20;99.90;;;;;;4977055;28;20517;-69
2023/08/16 03:46:10;;;;;;;2.25;2.05;;;21.20;99.90;;;;;;4981160;28;20518;-69
2023/08/16 03:48:36;;;;;;;2.75;2.17;;;21.20;99.90;;;;;;4978293;28;20038;-69
2023/08/16 03:51:04;;;;;;;3.63;2.28;;;21.20;99.90;;;;;;4983523;28;20033;-69
2023/08/16 03:53:30;;;;;;;2.38;2.17;;;21.20;99.90;;;;;;4972588;28;20559;-68
2023/08/16 03:55:56;;;;;;;2.35;2.00;;;21.20;99.90;;;;;;4978532;28;20113;-69
2023/08/16 03:58:22;;;;;;;2.38;2.17;;;21.20;99.90;;;;;;4979098;28;20037;-69
2023/08/16 04:00:50;;;;;;;3.72;2.30;;;21.20;99.90;;;;;;4995008;28;20646;-69
2023/08/16 04:03:16;;;;;;;2.80;2.40;;;21.10;99.90;;;;;;4991359;28;20854;-69
2023/08/16 04:05:42;;;;;;;3.85;2.47;;;21.10;99.90;;;;;;4975901;28;20034;-69
2023/08/16 04:08:08;;;;;;;3.83;2.38;;;21.10;99.90;;;;;;4976048;28;20030;-69
2023/08/16 04:10:36;;;;;;;3.55;2.35;;;21.10;99.90;;;;;;4975879;28;20038;-69
2023/08/16 04:13:02;;;;;;;3.47;2.25;;;21.10;99.90;;;;;;4972253;28;20784;-69
2023/08/16 04:15:28;;;;;;;3.28;2.40;;;21.10;99.90;;;;;;4992302;28;20402;-69
2023/08/16 04:17:55;;;;;;;6.18;2.67;;;21.10;99.90;;;;;;4996776;28;20771;-69
2023/08/16 04:20:21;;;;;;;3.03;2.22;;;21.10;99.90;;;;;;4995122;28;20034;-69
2023/08/16 04:22:47;;;;;;;2.90;2.53;;;21.10;99.90;;;;;;4993339;28;20085;-69
2023/08/16 04:25:13;;;;;;;2.13;1.92;;;21.20;99.90;;;;;;4958063;28;20420;-69
2023/08/16 04:27:39;;;;;;;2.80;2.60;;;21.20;99.90;;;;;;4977638;28;20087;-69
2023/08/16 04:30:06;;;;;;;3.30;2.55;;;21.30;99.90;;;;;;4969396;28;20034;-69
2023/08/16 04:32:32;;;;;;;5.15;2.80;;;21.30;99.90;;;;;;4975334;28;20437;-69
2023/08/16 04:34:58;;;;;;;5.22;3.28;;;21.30;99.90;;;;;;4973135;28;20104;-69
2023/08/16 04:37:24;;;;;;;3.42;2.22;;;21.30;99.90;;;;;;4956278;28;20738;-69
2023/08/16 04:39:50;;;;;;;3.88;3.08;;;21.40;99.90;;;;;;4974093;28;20026;-69
2023/08/16 04:42:15;;;;;;;4.35;2.78;;;21.50;99.90;;;;;;4979923;28;20026;-69
2023/08/16 04:44:42;;;;;;;4.40;2.58;;;21.50;99.90;;;;;;4969899;28;20038;-69
2023/08/16 04:47:08;;;;;;;4.15;2.85;;;21.50;99.90;;;;;;4978190;28;20033;-69
2023/08/16 04:49:34;;;;;;;5.93;2.85;;;21.60;99.90;;;;;;4971799;28;20045;-69
2023/08/16 04:51:59;;;;;;;3.72;2.78;;;21.60;99.90;;;;;;4974249;28;20453;-69
2023/08/16 04:54:25;;;;;;;4.63;2.95;;;21.70;99.90;;;;;;4964224;28;20039;-69
2023/08/16 04:56:51;;;;;;;3.03;2.72;;;21.70;99.90;;;;;;4976013;28;20037;-69
2023/08/16 04:59:17;;;;;;;3.50;2.47;;;21.70;99.90;;;;;;4980137;28;20038;-69
2023/08/16 05:01:44;;;;;;;3.28;2.95;;;21.80;99.90;;;;;;4969758;28;20398;-69
2023/08/16 05:04:10;;;;;;;3.45;2.70;;;21.80;99.90;;;;;;4981819;28;20034;-69
2023/08/16 05:06:37;;;;;;;3.65;2.97;;;21.80;99.90;;;;;;4980075;28;20145;-69
2023/08/16 05:09:04;;;;;;;3.97;2.88;;;21.90;99.90;;;;;;4988955;28;20104;-69
2023/08/16 05:11:30;;;;;;;3.75;3.25;;;21.90;99.90;;;;;;4979175;28;20033;-69
2023/08/16 05:13:56;;;;;;;4.20;3.10;;;21.90;99.90;;;;;;4981939;28;20087;-69
2023/08/16 05:16:22;;;;;;;3.03;2.72;;;22.00;99.90;;;;;;4979186;28;20505;-69
2023/08/16 05:18:48;;;;;;;3.35;2.88;;;22.00;99.90;;;;;;4977193;28;20117;-69
2023/08/16 05:21:15;;;;;;;2.97;2.67;;;22.00;99.90;;;;;;4976046;28;20026;-69
2023/08/16 05:23:41;;;;;;;4.35;3.17;;;22.10;99.90;;;;;;4996872;28;20384;-69
2023/08/16 05:26:07;;;;;;;8.50;3.22;;;22.10;99.90;;;;;;4995920;28;20064;-69
2023/08/16 05:28:32;;;;;;;3.47;3.13;;;22.10;99.90;;;;;;4997086;28;20041;-69
2023/08/16 05:31:11;;;;;;;2.95;2.55;;;22.00;99.90;;;;;;4995058;28;20105;-69
2023/08/16 05:33:38;;;;;;;3.08;2.67;;;22.00;99.90;;;;;;5001421;28;20046;-69
2023/08/16 05:36:04;;;;;;;8.13;3.88;;;22.10;99.90;;;;;;4995599;28;20030;-69
2023/08/16 05:38:31;;;;;;;3.90;3.30;;;22.20;99.90;;;;;;4997460;28;20022;-69
2023/08/16 05:40:57;;;;;;;3.67;2.90;;;22.30;99.90;;;;;;4991913;28;20069;-70
2023/08/16 05:43:23;;;;;;;3.72;3.05;;;22.30;99.90;;;;;;4983077;28;20034;-69
2023/08/16 05:45:49;;;;;;;3.67;2.88;;;22.40;99.90;;;;;;4990376;28;20045;-69
2023/08/16 05:48:15;;;;;;;3.50;2.88;;;22.40;99.90;;;;;;4994626;28;20026;-69
2023/08/16 05:50:41;;;;;;;3.70;3.25;;;22.50;99.90;;;;;;4995025;28;20101;-69
2023/08/16 05:53:07;;;;;;;6.25;3.25;;;22.60;99.90;;;;;;4994052;28;20448;-69
2023/08/16 05:55:34;;;;;;;4.97;3.78;;;22.70;99.90;;;;;;4971659;28;20043;-69
2023/08/16 05:58:00;;;;;;;3.75;3.40;;;22.80;99.90;;;;;;4994568;28;20494;-69
2023/08/16 06:00:26;;;;;;;6.22;3.60;;;22.90;99.90;;;;;;4996026;28;20427;-69
2023/08/16 06:02:52;;;;;;;3.30;3.00;;;23.00;99.90;;;;;;4991792;28;20085;-69
2023/08/16 06:05:19;;;;;;;4.03;3.63;;;23.10;99.90;;;;;;4994050;28;20080;-69
2023/08/16 06:07:45;;;;;;;4.07;3.67;;;23.20;99.90;;;;;;5001540;28;20406;-69
2023/08/16 06:10:11;;;;;;;5.03;3.55;;;23.20;99.90;;;;;;4996094;28;20100;-69
2023/08/16 06:12:37;;;;;;;4.07;3.67;;;23.20;99.90;;;;;;4994902;28;20038;-69
2023/08/16 06:15:03;;;;;;;7.78;4.80;;;23.20;99.90;;;;;;4987366;28;20037;-69
2023/08/16 06:17:29;;;;;;;4.28;3.88;;;23.30;99.90;;;;;;4997562;28;20085;-70
2023/08/16 06:19:56;;;;;;;4.15;3.78;;;23.30;99.90;;;;;;4988197;28;20557;-69
2023/08/16 06:22:22;;;;;;;4.90;4.40;;;23.30;99.90;;;;;;4985190;28;20038;-70
2023/08/16 06:24:47;;;;;;;5.13;3.83;;;23.40;99.90;;;;;;4993092;28;20039;-70
2023/08/16 06:27:13;;;;;;;4.88;4.10;;;23.40;99.90;;;;;;4990118;28;20065;-69
2023/08/16 06:29:39;;;;;;;5.07;3.50;;;23.40;99.90;;;;;;4986553;28;20501;-70
2023/08/16 06:32:06;;;;;;;5.85;4.25;;;23.40;99.90;;;;;;4995551;28;20046;-70
2023/08/16 06:34:33;;;;;;;4.00;3.60;;;23.40;99.90;;;;;;4989097;28;20030;-70
2023/08/16 06:36:59;;;;;;;6.72;4.43;;;23.40;99.90;;;;;;4995185;28;20038;-70
2023/08/16 06:39:25;;;;;;;5.80;4.25;;;23.40;99.90;;;;;;4997695;28;20033;-70
2023/08/16 06:41:51;;;;;;;7.65;4.93;;;23.50;99.90;;;;;;4973975;28;20085;-70
2023/08/16 06:44:17;;;;;;;5.97;4.07;;;23.70;99.90;;;;;;4995339;28;20514;-69
2023/08/16 06:46:43;;;;;;;6.88;4.63;;;23.80;99.90;;;;;;4993507;28;20053;-70
2023/08/16 06:49:09;;;;;;;7.70;4.85;;;23.90;99.90;;;;;;4975371;28;20035;-70
2023/08/16 06:51:35;;;;;;;5.50;4.60;;;23.90;99.90;;;;;;4969759;28;20030;-70
2023/08/16 06:54:00;;;;;;;4.85;4.05;;;24.00;99.90;;;;;;4982970;28;20073;-70
2023/08/16 06:56:26;;;;;;;6.78;4.93;;;24.00;99.90;;;;;;4990765;28;20022;-70
2023/08/16 06:58:52;;;;;;;5.05;4.00;;;24.10;99.90;;;;;;4999789;28;20411;-69
2023/08/16 07:01:18;;;;;;;4.55;3.70;;;24.10;99.90;;;;;;4992411;28;20030;-70
2023/08/16 07:03:43;;;;;;;5.63;4.25;;;24.20;99.90;;;;;;4995827;28;20037;-70
2023/08/16 07:06:09;;;;;;;6.28;4.70;;;24.30;99.90;;;;;;4988934;28;20204;-70
2023/08/16 07:08:35;;;;;;;6.72;5.10;;;24.40;99.90;;;;;;4975302;28;20026;-70
2023/08/16 07:11:02;;;;;;;6.30;5.20;;;24.50;99.90;;;;;;4983790;28;20038;-70
2023/08/16 07:13:27;;;;;;;5.30;4.60;;;24.50;99.90;;;;;;4989533;28;20034;-70
2023/08/16 07:15:53;;;;;;;5.28;4.53;;;24.50;99.90;;;;;;4992015;28;20442;-70
2023/08/16 07:18:19;;;;;;;5.95;4.60;;;24.60;99.90;;;;;;4995962;28;20801;-70
2023/08/16 07:20:45;;;;;;;4.93;4.00;;;24.70;99.90;;;;;;4985456;28;20034;-70
2023/08/16 07:23:11;;;;;;;4.90;4.22;;;24.70;99.90;;;;;;4991977;28;20038;-70
2023/08/16 07:25:37;;;;;;;4.18;3.78;;;24.80;99.90;;;;;;4983356;28;20430;-70
2023/08/16 07:28:04;;;;;;;4.30;3.85;;;24.70;99.90;;;;;;4990498;28;20038;-70
2023/08/16 07:30:30;;;;;;;4.20;3.80;;;24.60;99.90;;;;;;4986580;28;20629;-70
2023/08/16 07:32:56;;;;;;;5.25;3.60;;;24.60;99.90;;;;;;5001960;28;20120;-70
2023/08/16 07:35:22;;;;;;;5.13;4.10;;;24.50;99.90;;;;;;4987917;28;20066;-70
2023/08/16 07:37:48;;;;;;;5.18;4.22;;;24.40;99.90;;;;;;4991801;28;20030;-70
2023/08/16 07:40:13;;;;;;;3.88;3.47;;;24.40;99.90;;;;;;4974763;28;20077;-70
2023/08/16 07:42:40;;;;;;;6.05;4.20;;;24.40;99.90;;;;;;4995762;28;20032;-70
2023/08/16 07:45:06;;;;;;;4.57;3.97;;;24.30;99.90;;;;;;4987335;28;20046;-70
2023/08/16 07:47:32;;;;;;;4.28;3.80;;;24.30;99.90;;;;;;4979606;28;20074;-69
2023/08/16 07:49:58;;;;;;;4.45;3.72;;;24.30;99.90;;;;;;4988163;28;20040;-70
2023/08/16 07:52:24;;;;;;;4.57;3.92;;;24.30;99.90;;;;;;4997502;28;20022;-70
2023/08/16 07:54:50;;;;;;;4.65;4.22;;;24.40;99.90;;;;;;4995531;28;20073;-70
2023/08/16 07:57:16;;;;;;;6.60;4.57;;;24.40;99.90;;;;;;4996320;28;20034;-70
2023/08/16 07:59:42;;;;;;;6.43;4.57;;;24.50;99.90;;;;;;4985067;28;20403;-70
2023/08/16 08:02:08;;;;;;;6.07;4.70;;;24.70;99.90;;;;;;4990308;28;20085;-70
2023/08/16 08:04:35;;;;;;;4.18;3.78;;;24.80;99.90;;;;;;4981146;28;20030;-70
2023/08/16 08:07:01;;;;;;;5.63;4.47;;;24.90;99.90;;;;;;4992886;28;20069;-70
2023/08/16 08:09:27;;;;;;;5.72;4.30;;;25.00;99.90;;;;;;4989852;28;20124;-70
2023/08/16 08:11:53;;;;;;;4.88;4.43;;;25.00;99.90;;;;;;4986958;28;20490;-71
2023/08/16 08:14:19;;;;;;;5.95;5.07;;;25.10;99.90;;;;;;4970222;28;20046;-69
2023/08/16 08:16:45;;;;;;;5.43;4.85;;;25.10;99.90;;;;;;4968521;28;20081;-70
2023/08/16 08:19:11;;;;;;;5.03;4.13;;;25.20;99.90;;;;;;4991496;28;20422;-70
2023/08/16 08:21:37;;;;;;;7.15;4.63;;;25.20;99.90;;;;;;4986432;28;20100;-70
2023/08/16 08:24:03;;;;;;;8.07;4.78;;;25.20;99.90;;;;;;4987619;28;20056;-70
2023/08/16 08:26:30;;;;;;;6.75;5.22;;;25.20;99.90;;;;;;4992172;28;20026;-70
2023/08/16 08:28:56;;;;;;;7.43;4.80;;;25.20;99.90;;;;;;4992184;28;20101;-70
2023/08/16 08:31:23;;;;;;;5.03;4.25;;;25.30;99.90;;;;;;4981059;28;20033;-71
2023/08/16 08:33:49;;;;;;;6.03;4.70;;;25.50;99.90;;;;;;4982266;28;20042;-71
2023/08/16 08:36:15;;;;;;;6.28;4.50;;;25.70;99.90;;;;;;4983754;28;20045;-67
2023/08/16 08:38:41;;;;;;;5.38;3.97;;;25.70;99.90;;;;;;4983584;28;20117;-70
2023/08/16 08:41:08;;;;;;;8.30;4.13;;;25.70;99.90;;;;;;4985466;28;20561;-70
2023/08/16 08:43:37;;;;;;;5.20;3.92;;;25.80;99.90;;;;;;4991975;28;20059;-70
2023/08/16 08:46:05;;;;;;;4.85;4.28;;;25.90;99.90;;;;;;4987961;28;20774;-70
2023/08/16 08:48:31;;;;;;;4.32;3.85;;;26.00;99.90;;;;;;4993523;28;20065;-70
2023/08/16 08:50:58;;;;;;;6.25;4.38;;;25.90;99.90;;;;;;4990448;28;20026;-70
2023/08/16 08:53:25;;;;;;;5.32;4.18;;;25.90;99.90;;;;;;4987179;28;20027;-70
2023/08/16 08:55:53;;;;;;;3.60;3.30;;;25.80;99.90;;;;;;4987581;28;20038;-70
2023/08/16 08:58:20;;;;;;;3.70;3.40;;;25.80;99.90;;;;;;4985597;28;20026;-71
2023/08/16 09:00:46;;;;;;;4.82;3.53;;;25.70;99.90;;;;;;4989224;28;20038;-70
2023/08/16 09:03:15;;;;;;;4.22;3.83;;;25.70;99.90;;;;;;4975353;28;20037;-70
2023/08/16 09:05:42;;;;;;;4.25;3.75;;;25.60;99.90;;;;;;4990256;28;20035;-70
2023/08/16 09:08:13;;;;;;;5.88;4.03;;;25.50;99.90;;;;;;4996682;28;20040;-70
2023/08/16 09:10:39;;;;;;;5.00;3.67;;;25.60;99.90;;;;;;4980919;28;20092;-70
2023/08/16 09:13:07;;;;;;;5.28;3.33;;;25.70;99.90;;;;;;4987439;28;20034;-70
2023/08/16 09:15:33;;;;;;;4.20;3.80;;;25.80;99.90;;;;;;4984865;28;20393;-70
2023/08/16 09:18:07;;;;;;;4.60;3.58;;;26.00;99.90;;;;;;4991359;28;20075;-70
2023/08/16 09:20:33;;;;;;;3.97;3.45;;;26.10;99.90;;;;;;4992146;28;20049;-70
2023/08/16 09:22:59;;;;;;;4.00;3.60;;;26.10;99.90;;;;;;4991940;28;20026;-69
2023/08/16 09:25:26;;;;;;;5.47;3.60;;;26.00;99.90;;;;;;4988937;28;20034;-70
2023/08/16 09:27:52;;;;;;;5.80;3.80;;;25.90;99.90;;;;;;4991964;28;20121;-69
2023/08/16 09:30:18;;;;;;;4.03;3.60;;;25.80;99.90;;;;;;4991040;28;20034;-70
2023/08/16 09:32:45;;;;;;;4.00;3.60;;;25.70;99.90;;;;;;4986419;28;20035;-70
2023/08/16 09:35:16;;;;;;;4.28;3.53;;;25.60;99.90;;;;;;4989022;28;20482;-70
2023/08/16 09:37:45;;;;;;;4.32;3.65;;;25.60;99.90;;;;;;4978280;28;20030;-68
2023/08/16 09:40:11;;;;;;;6.30;3.60;;;25.70;99.90;;;;;;4995867;28;20371;-70
2023/08/16 09:42:37;;;;;;;9.02;3.55;;;25.70;99.90;;;;;;4991974;28;20027;-70
2023/08/16 09:45:03;;;;;;;4.88;3.40;;;25.90;99.90;;;;;;4992518;28;20045;-70
2023/08/16 09:47:30;;;;;;;5.13;3.30;;;26.00;99.90;;;;;;4982392;28;20431;-70
2023/08/16 09:50:00;;;;;;;4.40;3.38;;;26.20;99.90;;;;;;4977618;28;20030;-71
2023/08/16 09:52:29;;;;;;;5.50;3.20;;;26.30;99.90;;;;;;4987540;28;20560;-70
2023/08/16 09:54:56;;;;;;;3.60;3.20;;;26.30;99.90;;;;;;4997674;28;20066;-70
2023/08/16 09:57:22;;;;;;;6.13;3.17;;;26.50;99.90;;;;;;4994901;28;20023;-70
2023/08/16 09:59:49;;;;;;;4.18;3.20;;;26.70;99.90;;;;;;4993889;28;20034;-70
2023/08/16 10:02:16;;;;;;;4.22;3.10;;;26.70;99.90;;;;;;4995043;28;20057;-70
2023/08/16 10:04:42;;;;;;;3.47;3.17;;;26.70;99.90;;;;;;4991394;28;20042;-70
2023/08/16 10:07:11;;;;;;;3.80;3.03;;;26.70;99.90;;;;;;4988934;28;20092;-71
2023/08/16 10:09:38;;;;;;;4.53;3.13;;;26.70;99.90;;;;;;4984772;28;20113;-70
2023/08/16 10:12:06;;;;;;;4.93;2.90;;;26.90;99.90;;;;;;4994673;28;20034;-69
2023/08/16 10:14:33;;;;;;;5.25;3.70;;;27.00;99.90;;;;;;4986163;28;20034;-69
2023/08/16 10:17:03;;;;;;;4.78;3.60;;;27.10;99.90;;;;;;4975956;28;20030;-69
2023/08/16 10:19:39;;;;;;;3.45;3.15;;;27.10;99.90;;;;;;4988865;28;20121;-70
2023/08/16 10:22:15;;;;;;;3.67;3.38;;;27.20;99.90;;;;;;4992048;28;20034;-70
2023/08/16 10:24:45;;;;;;;4.93;3.15;;;27.10;99.90;;;;;;4989694;28;20124;-70
2023/08/16 10:27:12;;;;;;;5.63;3.67;;;27.10;99.90;;;;;;4992558;28;20261;-70
2023/08/16 10:29:40;;;;;;;4.93;3.72;;;27.00;99.90;;;;;;4983935;28;20110;-70
2023/08/16 10:32:11;;;;;;;5.00;3.97;;;26.90;99.90;;;;;;4996321;28;20037;-70
2023/08/16 10:34:38;;;;;;;3.80;3.50;;;26.80;99.90;;;;;;4996150;28;20042;-70
2023/08/16 10:37:06;;;;;;;4.03;3.35;;;26.70;99.90;;;;;;4992708;28;20548;-71
2023/08/16 10:39:31;;;;;;;3.67;3.38;;;26.50;99.90;;;;;;4992369;28;20100;-71
2023/08/16 10:42:07;;;;;;;3.80;3.50;;;26.40;99.90;;;;;;4996473;28;20037;-69
2023/08/16 10:44:33;;;;;;;4.78;3.75;;;26.30;99.90;;;;;;4984537;28;20039;-71
2023/08/16 10:46:59;;;;;;;5.38;3.88;;;26.30;99.90;;;;;;4984921;28;20045;-71
2023/08/16 10:49:39;;;;;;;4.72;3.50;;;26.20;99.90;;;;;;4997110;28;20036;-71
2023/08/16 10:52:06;;;;;;;4.03;3.63;;;26.10;99.90;;;;;;4984004;28;20040;-71
2023/08/16 10:54:35;;;;;;;3.78;3.42;;;26.10;99.90;;;;;;4993181;28;20124;-69
2023/08/16 10:57:02;;;;;;;3.85;3.10;;;26.10;99.90;;;;;;4977496;28;20128;-69
2023/08/16 10:59:41;;;;;;;4.10;3.70;;;26.00;99.90;;;;;;4994216;28;20041;-71
2023/08/16 11:02:14;;;;;;;3.50;3.20;;;26.10;99.90;;;;;;4990778;28;20088;-71
2023/08/16 11:04:42;;;;;;;4.50;3.25;;;26.20;99.90;;;;;;4988759;28;20861;-70
2023/08/16 11:07:12;;;;;;;4.13;3.63;;;26.30;99.90;;;;;;4997045;28;20052;-70
2023/08/16 11:09:39;;;;;;;5.20;3.42;;;26.40;99.90;;;;;;4979220;28;20415;-71
2023/08/16 11:12:06;;;;;;;4.75;3.40;;;26.50;99.90;;;;;;4990097;28;20866;-71
2023/08/16 11:14:36;;;;;;;4.68;3.33;;;26.70;99.90;;;;;;4996898;28;20489;-70
2023/08/16 11:17:02;;;;;;;3.67;3.28;;;26.80;99.90;;;;;;4986048;28;20153;-71
2023/08/16 11:19:28;;;;;;;4.45;3.55;;;26.90;99.90;;;;;;4975882;28;20085;-71
2023/08/16 11:22:03;;;;;;;5.82;3.25;;;26.90;99.90;;;;;;4972951;28;20045;-71
2023/08/16 11:24:29;;;;;;;4.05;3.63;;;27.00;99.90;;;;;;4989014;28;20148;-71
2023/08/16 11:26:55;;;;;;;6.70;4.20;;;27.00;99.90;;;;;;4991564;28;20101;-71
2023/08/16 11:29:20;;;;;;;3.60;3.30;;;27.00;99.90;;;;;;4993706;28;20038;-70
2023/08/16 11:31:46;;;;;;;5.40;4.20;;;27.00;99.90;;;;;;4991105;28;20034;-71
2023/08/16 11:34:13;;;;;;;5.25;3.95;;;27.00;99.90;;;;;;4993349;28;20117;-71
2023/08/16 11:36:39;;;;;;;7.93;3.40;;;27.10;99.90;;;;;;4981256;28;20066;-71
2023/08/16 11:39:08;;;;;;;6.25;3.55;;;27.30;99.90;;;;;;4997501;28;20176;-71
2023/08/16 11:41:35;;;;;;;4.07;3.67;;;27.40;99.90;;;;;;4987602;28;20034;-71
2023/08/16 11:44:01;;;;;;;4.72;4.05;;;27.60;99.90;;;;;;4997518;28;20299;-71
2023/08/16 11:46:27;;;;;;;5.30;3.60;;;27.70;99.90;;;;;;4994056;28;20038;-71
2023/08/16 11:48:54;;;;;;;4.70;3.78;;;27.90;99.90;;;;;;4987784;28;20066;-71
2023/08/16 11:51:20;;;;;;;5.95;3.95;;;28.00;99.90;;;;;;4986337;28;20042;-71
2023/08/16 11:53:46;;;;;;;3.90;3.53;;;28.10;99.90;;;;;;4995104;28;20165;-71
2023/08/16 11:56:12;;;;;;;4.75;3.65;;;28.10;99.90;;;;;;4985468;28;20050;-71
2023/08/16 11:58:45;;;;;;;4.22;3.78;;;28.10;99.90;;;;;;5000057;28;20033;-71
2023/08/16 12:01:14;;;;;;;5.43;3.70;;;28.00;99.90;;;;;;4993242;28;20585;-70
2023/08/16 12:03:44;;;;;;;4.30;3.40;;;28.00;99.90;;;;;;4991463;28;20038;-71
2023/08/16 12:06:11;;;;;;;5.22;3.08;;;28.00;99.90;;;;;;4996276;28;20034;-70
2023/08/16 12:08:53;;;;;;;6.03;3.60;;;28.00;99.90;;;;;;4994780;28;20048;-71
2023/08/16 12:11:31;;;;;;;7.70;5.30;;;28.00;99.20;;;;;;4987490;28;20034;-70
2023/08/16 12:13:59;;;;;;;4.28;3.20;;;27.80;99.90;;;;;;4988162;28;20026;-70
2023/08/16 12:16:26;;;;;;;3.78;3.38;;;27.70;99.90;;;;;;5001192;28;20117;-70
2023/08/16 12:18:51;;;;;;;5.20;2.88;;;27.60;99.40;;;;;;4995021;28;20038;-70
2023/08/16 12:21:17;;;;;;;3.45;3.15;;;27.40;99.20;;;;;;4978127;28;20026;-71
2023/08/16 12:23:43;;;;;;;5.55;2.97;;;27.40;99.40;;;;;;4987068;28;20555;-70
2023/08/16 12:26:09;;;;;;;4.43;3.05;;;27.30;99.90;;;;;;4982856;28;20030;-69
2023/08/16 12:28:34;;;;;;;3.70;2.72;;;27.30;99.90;;;;;;4991059;28;20041;-71
2023/08/16 12:31:00;;;;;;;4.25;3.08;;;27.40;99.90;;;;;;4990706;28;20113;-70
2023/08/16 12:33:26;;;;;;;4.10;3.20;;;27.40;98.80;;;;;;4985544;28;20026;-70
2023/08/16 12:35:53;;;;;;;3.78;3.28;;;27.50;99.90;;;;;;5000543;28;20787;-71
2023/08/16 12:38:19;;;;;;;4.90;3.15;;;27.60;99.90;;;;;;4991441;28;20034;-70
2023/08/16 12:40:45;;;;;;;3.53;2.92;;;27.60;99.30;;;;;;4990897;28;20395;-71
2023/08/16 12:43:11;;;;;;;3.63;3.30;;;27.70;99.90;;;;;;4995393;28;20592;-70
2023/08/16 12:45:38;;;;;;;6.65;3.00;;;27.70;99.90;;;;;;4976689;28;20407;-71